Time;durP1;ratioP1;P1;durP2;ratioP2;P2;SDS_P1;SDS_P2;PMS_P1;PMS_P2;Temp;Humidity;BMP_temperature;BMP_pressure;BME280_temperature;BME280_humidity;BME280_pressure;Samples;Min_cycle;Max_cycle;Signal;HPM_P1;HPM_P2
2021/06/13 00:00:49;;;;;;;10.15;7.75;;;16.20;99.90;;;;;;4999493;28;20383;-89
2021/06/13 00:03:17;;;;;;;11.45;7.90;;;16.30;99.90;;;;;;4989339;28;20050;-91
2021/06/13 00:05:43;;;;;;;9.18;7.88;;;16.40;99.90;;;;;;4976010;28;20130;-89
2021/06/13 00:08:13;;;;;;;8.02;7.10;;;16.50;99.90;;;;;;4992422;28;20141;-90
2021/06/13 00:10:43;;;;;;;10.15;7.00;;;16.50;99.90;;;;;;4992665;28;20124;-90
2021/06/13 00:13:11;;;;;;;10.35;7.38;;;16.60;99.90;;;;;;4976207;28;20042;-88
2021/06/13 00:15:38;;;;;;;9.57;7.38;;;16.60;99.90;;;;;;4992390;28;20543;-89
2021/06/13 00:18:05;;;;;;;11.13;7.10;;;16.60;99.90;;;;;;4991938;28;20052;-91
2021/06/13 00:20:32;;;;;;;9.18;6.97;;;16.70;99.90;;;;;;4975544;28;20070;-89
2021/06/13 00:22:59;;;;;;;11.02;7.97;;;16.70;99.90;;;;;;4991903;28;20527;-90
2021/06/13 00:25:27;;;;;;;11.73;7.93;;;16.70;99.90;;;;;;4991018;28;20135;-90
2021/06/13 00:27:56;;;;;;;11.40;7.53;;;16.60;99.90;;;;;;4972790;28;20047;-91
2021/06/13 00:30:24;;;;;;;11.15;7.60;;;16.60;99.90;;;;;;4978277;28;20061;-89
2021/06/13 00:32:54;;;;;;;10.70;7.63;;;16.70;99.90;;;;;;4991836;28;20086;-88
2021/06/13 00:35:22;;;;;;;10.93;7.82;;;16.70;99.90;;;;;;4992016;28;20042;-89
2021/06/13 00:37:50;;;;;;;8.90;6.93;;;16.70;99.90;;;;;;5001382;28;20050;-88
2021/06/13 00:40:20;;;;;;;9.02;6.78;;;16.60;99.90;;;;;;5005216;28;20078;-89
2021/06/13 00:42:49;;;;;;;10.07;7.50;;;16.60;99.90;;;;;;5002783;28;20130;-89
2021/06/13 00:45:20;;;;;;;8.57;6.45;;;16.50;99.90;;;;;;4991716;28;20054;-89
2021/06/13 00:47:47;;;;;;;12.23;7.40;;;16.40;99.90;;;;;;4974616;28;20050;-89
2021/06/13 00:50:25;;;;;;;12.02;7.60;;;16.40;99.90;;;;;;4991195;28;20046;-91
2021/06/13 00:52:53;;;;;;;10.07;7.15;;;16.30;99.90;;;;;;4975128;28;20052;-90
2021/06/13 00:55:20;;;;;;;11.88;8.32;;;16.20;99.90;;;;;;4989798;28;20050;-89
2021/06/13 00:57:47;;;;;;;10.85;7.57;;;16.10;99.90;;;;;;4974419;28;20133;-92
2021/06/13 01:00:15;;;;;;;11.73;7.43;;;16.00;99.90;;;;;;5007278;28;20129;-92
2021/06/13 01:02:42;;;;;;;9.02;7.43;;;15.90;99.90;;;;;;4980855;28;20054;-90
2021/06/13 01:05:10;;;;;;;12.40;7.15;;;15.80;99.90;;;;;;4974272;28;20058;-92
2021/06/13 01:07:55;;;;;;;9.50;7.38;;;15.70;99.90;;;;;;4973648;28;20121;-89
2021/06/13 01:10:48;;;;;;;12.52;7.95;;;15.60;99.90;;;;;;4973968;28;20053;-90
2021/06/13 01:13:37;;;;;;;10.00;7.65;;;15.50;99.90;;;;;;4989924;28;20042;-91
2021/06/13 01:16:25;;;;;;;10.43;7.45;;;15.40;99.90;;;;;;4975610;28;20053;-91
2021/06/13 01:19:07;;;;;;;11.38;7.85;;;15.30;99.90;;;;;;5005128;28;20088;-90
2021/06/13 01:21:56;;;;;;;12.55;8.38;;;15.30;99.90;;;;;;5003109;28;20060;-88
2021/06/13 01:25:00;;;;;;;11.18;7.47;;;15.30;99.90;;;;;;4991637;28;20058;-89
2021/06/13 01:28:02;;;;;;;12.40;8.10;;;15.20;99.90;;;;;;4904278;28;20055;-89
2021/06/13 01:30:32;;;;;;;11.45;7.85;;;15.20;99.90;;;;;;4970617;28;20060;-90
2021/06/13 01:33:07;;;;;;;15.40;8.00;;;15.10;99.90;;;;;;4994256;28;20531;-89
2021/06/13 01:35:35;;;;;;;20.88;8.77;;;15.00;99.90;;;;;;4981661;28;20129;-89
2021/06/13 01:38:04;;;;;;;12.27;7.97;;;14.90;99.90;;;;;;4991756;28;20051;-89
2021/06/13 01:40:36;;;;;;;10.15;7.80;;;14.90;99.90;;;;;;4974671;28;20165;-89
2021/06/13 01:43:05;;;;;;;13.43;8.13;;;14.80;99.90;;;;;;4991611;28;20050;-89
2021/06/13 01:45:36;;;;;;;9.90;8.82;;;14.70;99.90;;;;;;4990800;28;20077;-88
2021/06/13 01:48:05;;;;;;;11.48;8.52;;;14.60;99.90;;;;;;4974864;28;20129;-88
2021/06/13 01:50:34;;;;;;;11.00;8.63;;;14.60;99.90;;;;;;5003404;28;20109;-89
2021/06/13 01:53:09;;;;;;;11.65;8.43;;;14.50;99.90;;;;;;4990528;28;20382;-90
2021/06/13 01:55:39;;;;;;;13.00;8.70;;;14.50;99.90;;;;;;4986149;28;20081;-88
2021/06/13 01:58:10;;;;;;;14.48;9.05;;;14.40;99.90;;;;;;4985455;28;20379;-88
2021/06/13 02:00:40;;;;;;;13.27;9.35;;;14.40;99.90;;;;;;4978134;28;20055;-89
2021/06/13 02:03:08;;;;;;;12.05;9.50;;;14.30;99.90;;;;;;4991253;28;20443;-90
2021/06/13 02:05:39;;;;;;;14.65;8.80;;;14.30;99.90;;;;;;4990811;28;20098;-89
2021/06/13 02:08:06;;;;;;;14.32;8.45;;;14.30;99.90;;;;;;4974068;28;20093;-89
2021/06/13 02:10:34;;;;;;;13.82;8.90;;;14.20;99.90;;;;;;4973961;28;20236;-89
2021/06/13 02:13:01;;;;;;;16.10;9.40;;;14.20;99.90;;;;;;4979885;28;20126;-90
2021/06/13 02:15:29;;;;;;;15.95;9.80;;;14.10;99.90;;;;;;4990720;28;20050;-89
2021/06/13 02:17:57;;;;;;;12.20;8.77;;;14.10;99.90;;;;;;4990833;28;20078;-87
2021/06/13 02:20:30;;;;;;;12.60;9.55;;;14.20;99.90;;;;;;4991792;28;20136;-89
2021/06/13 02:22:58;;;;;;;20.85;9.90;;;14.20;99.90;;;;;;4994415;28;20077;-89
2021/06/13 02:25:25;;;;;;;13.05;9.90;;;14.20;99.90;;;;;;4994170;28;20480;-90
2021/06/13 02:27:58;;;;;;;18.23;10.10;;;14.30;99.90;;;;;;4977089;28;20485;-87
2021/06/13 02:30:28;;;;;;;14.13;9.50;;;14.30;99.90;;;;;;4994460;28;20042;-89
2021/06/13 02:32:58;;;;;;;11.55;8.85;;;14.40;99.90;;;;;;4991071;28;20042;-89
2021/06/13 02:35:33;;;;;;;12.52;9.38;;;14.50;99.90;;;;;;4994871;28;20056;-92
2021/06/13 02:38:01;;;;;;;13.15;8.88;;;14.60;99.90;;;;;;4963186;28;20052;-88
2021/06/13 02:40:28;;;;;;;17.55;9.30;;;14.70;99.90;;;;;;4966075;28;20050;-89
2021/06/13 02:42:55;;;;;;;18.60;8.30;;;14.70;99.90;;;;;;4991815;28;20046;-87
2021/06/13 02:45:27;;;;;;;13.05;8.05;;;14.70;99.90;;;;;;4993976;28;20058;-87
2021/06/13 02:47:54;;;;;;;13.87;8.70;;;14.80;99.90;;;;;;4996446;28;20042;-87
2021/06/13 02:50:23;;;;;;;14.30;8.65;;;14.80;99.90;;;;;;4987673;28;20503;-89
2021/06/13 02:52:55;;;;;;;13.02;8.90;;;14.70;99.90;;;;;;4993487;28;20456;-90
2021/06/13 02:55:30;;;;;;;14.55;8.98;;;14.70;99.90;;;;;;4994485;28;20177;-87
2021/06/13 02:58:07;;;;;;;15.27;8.90;;;14.60;99.90;;;;;;4960225;28;20496;-90
2021/06/13 03:00:36;;;;;;;14.13;8.85;;;14.50;99.90;;;;;;4993741;28;20705;-89
2021/06/13 03:03:04;;;;;;;15.57;8.93;;;14.40;99.90;;;;;;4976263;28;20535;-87
2021/06/13 03:05:31;;;;;;;17.60;9.23;;;14.30;99.90;;;;;;4960915;28;20081;-87
2021/06/13 03:07:58;;;;;;;14.73;8.68;;;14.20;99.90;;;;;;4979414;28;20051;-88
2021/06/13 03:10:27;;;;;;;16.23;8.48;;;14.10;99.90;;;;;;4976715;28;20050;-87
2021/06/13 03:12:56;;;;;;;13.85;8.10;;;14.00;99.90;;;;;;4992813;28;20558;-89
2021/06/13 03:15:26;;;;;;;18.92;9.20;;;13.90;99.90;;;;;;4976672;28;20141;-88
2021/06/13 03:17:54;;;;;;;15.95;9.07;;;13.80;99.90;;;;;;4993454;28;20046;-89
2021/06/13 03:20:23;;;;;;;17.17;9.07;;;13.70;99.90;;;;;;4992982;28;20050;-89
2021/06/13 03:22:54;;;;;;;16.48;9.25;;;13.70;99.90;;;;;;4993088;28;20136;-90
2021/06/13 03:25:21;;;;;;;14.32;8.60;;;13.70;99.90;;;;;;4987996;28;20109;-89
2021/06/13 03:27:51;;;;;;;13.77;9.00;;;13.70;99.90;;;;;;4993151;28;20078;-90
2021/06/13 03:30:21;;;;;;;15.07;8.90;;;13.70;99.90;;;;;;4993382;28;20125;-90
2021/06/13 03:32:48;;;;;;;12.32;8.13;;;13.70;99.90;;;;;;4990415;28;20046;-90
2021/06/13 03:35:15;;;;;;;14.93;8.68;;;13.70;99.90;;;;;;4992672;28;20056;-91
2021/06/13 03:37:43;;;;;;;10.50;7.38;;;13.70;99.90;;;;;;4975928;28;20129;-89
2021/06/13 03:40:10;;;;;;;11.00;7.68;;;13.80;99.90;;;;;;4993247;28;20052;-89
2021/06/13 03:42:41;;;;;;;11.75;7.53;;;13.90;99.90;;;;;;4992244;28;20491;-90
2021/06/13 03:45:09;;;;;;;14.73;7.43;;;14.00;99.90;;;;;;4992568;28;20140;-88
2021/06/13 03:47:38;;;;;;;15.35;7.75;;;14.10;99.90;;;;;;4986232;28;20430;-88
2021/06/13 03:50:06;;;;;;;14.02;7.47;;;14.10;99.90;;;;;;4976103;28;20048;-88
2021/06/13 03:52:34;;;;;;;13.70;6.97;;;14.20;99.90;;;;;;4975485;28;20680;-90
2021/06/13 03:55:03;;;;;;;13.27;7.57;;;14.30;99.90;;;;;;4992568;28;20078;-91
2021/06/13 03:57:33;;;;;;;11.38;6.97;;;14.30;99.90;;;;;;4984996;28;20625;-89
2021/06/13 04:00:03;;;;;;;15.52;6.80;;;14.40;99.90;;;;;;4988606;28;20141;-89
2021/06/13 04:02:31;;;;;;;12.30;6.63;;;14.50;99.90;;;;;;4975425;28;20042;-88
2021/06/13 04:05:02;;;;;;;11.20;6.15;;;14.60;99.90;;;;;;4975183;28;20085;-90
2021/06/13 04:07:29;;;;;;;10.00;6.35;;;14.70;99.90;;;;;;4978878;28;20042;-89
2021/06/13 04:09:59;;;;;;;9.40;5.97;;;14.70;99.90;;;;;;4992235;28;20088;-88
2021/06/13 04:12:26;;;;;;;12.85;5.85;;;14.80;99.90;;;;;;4975204;28;20438;-91
2021/06/13 04:14:54;;;;;;;12.43;6.03;;;14.80;99.90;;;;;;4975523;28;20046;-89
2021/06/13 04:17:23;;;;;;;15.18;5.43;;;14.80;99.90;;;;;;4975024;28;20088;-88
2021/06/13 04:19:50;;;;;;;10.95;5.97;;;14.80;99.90;;;;;;4985435;28;20100;-89
2021/06/13 04:22:18;;;;;;;14.07;5.68;;;14.80;99.90;;;;;;4975104;28;20387;-88
2021/06/13 04:24:53;;;;;;;8.10;5.35;;;14.70;99.90;;;;;;4991935;28;20358;-89
2021/06/13 04:27:22;;;;;;;8.88;5.80;;;14.70;99.90;;;;;;4991999;28;20062;-90
2021/06/13 04:29:49;;;;;;;7.45;5.07;;;14.60;99.90;;;;;;4992420;28;20050;-89
2021/06/13 04:32:17;;;;;;;13.48;6.18;;;14.60;99.90;;;;;;4991933;28;20054;-86
2021/06/13 04:34:44;;;;;;;11.10;5.80;;;14.50;99.90;;;;;;4992078;28;20129;-88
2021/06/13 04:37:14;;;;;;;11.90;5.63;;;14.50;99.90;;;;;;4974756;28;20498;-87
2021/06/13 04:39:40;;;;;;;13.77;5.53;;;14.50;99.90;;;;;;4991687;28;20074;-89
2021/06/13 04:42:10;;;;;;;11.98;5.75;;;14.50;99.90;;;;;;4974684;28;20050;-88
2021/06/13 04:44:38;;;;;;;10.82;5.32;;;14.50;99.90;;;;;;4990885;28;20527;-88
2021/06/13 04:47:05;;;;;;;11.32;5.05;;;14.60;99.90;;;;;;4991855;28;20089;-90
2021/06/13 04:49:48;;;;;;;13.70;5.72;;;14.60;99.90;;;;;;4976917;28;20050;-88
2021/06/13 04:52:22;;;;;;;12.55;5.45;;;14.80;99.90;;;;;;4991421;28;20137;-88
2021/06/13 04:55:05;;;;;;;10.18;5.50;;;14.90;99.90;;;;;;4991889;28;20042;-91
2021/06/13 04:57:54;;;;;;;9.70;5.13;;;15.00;99.90;;;;;;4974292;28;20888;-89
2021/06/13 05:00:22;;;;;;;10.43;5.25;;;15.10;99.90;;;;;;4975034;28;20053;-90
2021/06/13 05:02:50;;;;;;;10.60;4.90;;;15.20;99.90;;;;;;4992272;28;20050;-90
2021/06/13 05:05:17;;;;;;;12.25;5.18;;;15.20;99.90;;;;;;4986622;28;20124;-89
2021/06/13 05:07:44;;;;;;;9.77;5.15;;;15.20;99.90;;;;;;4991536;28;20245;-89
2021/06/13 05:10:15;;;;;;;8.45;4.75;;;15.30;99.90;;;;;;4991656;28;20387;-88
2021/06/13 05:12:49;;;;;;;15.52;5.20;;;15.30;99.90;;;;;;4991881;28;20125;-88
2021/06/13 05:15:21;;;;;;;11.85;4.97;;;15.40;99.90;;;;;;4991333;28;20046;-87
2021/06/13 05:17:48;;;;;;;11.40;5.32;;;15.40;99.90;;;;;;4991831;28;20100;-89
2021/06/13 05:20:18;;;;;;;10.70;5.25;;;15.40;99.90;;;;;;4991345;28;20101;-88
2021/06/13 05:22:59;;;;;;;8.43;4.53;;;15.50;99.90;;;;;;4987909;28;20129;-88
2021/06/13 05:25:33;;;;;;;7.17;4.90;;;15.60;99.90;;;;;;4991427;28;20133;-90
2021/06/13 05:28:02;;;;;;;10.73;5.30;;;15.70;99.90;;;;;;4978598;28;20435;-90
2021/06/13 05:30:30;;;;;;;12.50;5.57;;;15.70;99.90;;;;;;4992297;28;20089;-90
2021/06/13 05:32:58;;;;;;;14.90;5.70;;;15.80;99.90;;;;;;4974057;28;20207;-91
2021/06/13 05:35:27;;;;;;;9.70;5.00;;;15.90;99.90;;;;;;4992045;28;20149;-88
2021/06/13 05:37:56;;;;;;;8.95;4.60;;;16.00;99.90;;;;;;4990909;28;20146;-92
2021/06/13 05:40:24;;;;;;;11.77;5.18;;;16.10;99.90;;;;;;4991961;28;20145;-89
2021/06/13 05:42:52;;;;;;;9.27;5.28;;;16.30;99.90;;;;;;4991287;28;20098;-90
2021/06/13 05:45:21;;;;;;;10.45;4.72;;;16.50;99.90;;;;;;4974476;28;20093;-90
2021/06/13 05:47:48;;;;;;;8.55;4.75;;;16.60;99.90;;;;;;4991496;28;20077;-90
2021/06/13 05:50:15;;;;;;;14.73;5.60;;;16.70;99.90;;;;;;4990761;28;20424;-91
2021/06/13 05:52:43;;;;;;;9.82;4.88;;;16.90;99.90;;;;;;4994240;28;20042;-92
2021/06/13 05:55:11;;;;;;;12.75;5.20;;;17.00;99.90;;;;;;4982961;28;20171;-91
2021/06/13 05:57:38;;;;;;;11.90;4.68;;;17.00;99.90;;;;;;4979771;28;20046;-91
2021/06/13 06:00:08;;;;;;;9.15;4.40;;;17.10;99.90;;;;;;4996323;28;20052;-91
2021/06/13 06:02:38;;;;;;;9.85;4.80;;;17.20;99.90;;;;;;4996221;28;20621;-92
2021/06/13 06:05:07;;;;;;;6.90;4.60;;;17.30;99.90;;;;;;4992868;28;20058;-92
2021/06/13 06:07:35;;;;;;;8.88;4.72;;;17.50;99.90;;;;;;4999548;28;20042;-91
2021/06/13 06:10:06;;;;;;;10.20;4.57;;;17.80;99.90;;;;;;4977555;28;20125;-92
2021/06/13 06:12:37;;;;;;;12.85;4.78;;;18.00;99.90;;;;;;4995238;28;20046;-91
2021/06/13 06:15:07;;;;;;;10.20;4.30;;;18.30;99.90;;;;;;4978124;28;20050;-90
2021/06/13 06:17:37;;;;;;;9.43;3.95;;;18.50;99.90;;;;;;4965201;28;20066;-90
2021/06/13 06:20:06;;;;;;;8.52;4.30;;;18.80;99.90;;;;;;4987106;28;20057;-90
2021/06/13 06:22:35;;;;;;;9.93;4.30;;;19.00;99.90;;;;;;4978195;28;20150;-89
2021/06/13 06:25:06;;;;;;;9.25;3.88;;;19.20;99.90;;;;;;4978058;28;20074;-93
2021/06/13 06:27:33;;;;;;;9.25;4.60;;;19.50;99.90;;;;;;4981207;28;20116;-92
2021/06/13 06:30:00;;;;;;;5.82;3.72;;;19.70;99.90;;;;;;5007323;28;20121;-93
2021/06/13 06:32:29;;;;;;;12.35;4.25;;;19.90;99.00;;;;;;5011042;28;20118;-92
2021/06/13 06:34:58;;;;;;;7.18;4.05;;;20.30;97.70;;;;;;5000344;28;20153;-90
2021/06/13 06:37:25;;;;;;;10.13;3.85;;;20.50;93.60;;;;;;5000697;28;20376;-90
2021/06/13 06:39:52;;;;;;;5.38;3.53;;;20.70;91.00;;;;;;4978675;28;20046;-92
2021/06/13 06:42:19;;;;;;;10.38;3.70;;;20.80;94.20;;;;;;4983150;28;20201;-90
2021/06/13 06:44:46;;;;;;;6.70;3.80;;;21.00;91.50;;;;;;4979466;28;20112;-91
2021/06/13 06:47:12;;;;;;;7.22;3.25;;;21.30;90.00;;;;;;4994587;28;20530;-91
2021/06/13 06:49:43;;;;;;;7.38;2.88;;;21.50;91.00;;;;;;4984259;28;20056;-93
2021/06/13 06:52:12;;;;;;;8.27;3.97;;;21.60;85.10;;;;;;4963354;28;20077;-92
2021/06/13 06:54:40;;;;;;;7.07;3.42;;;21.40;83.60;;;;;;5001988;28;20070;-91
2021/06/13 06:57:08;;;;;;;7.88;3.78;;;21.30;84.60;;;;;;4960439;28;20484;-93
2021/06/13 06:59:37;;;;;;;9.15;3.42;;;21.30;85.40;;;;;;5006519;28;20322;-92
2021/06/13 07:02:14;;;;;;;9.15;3.75;;;21.40;86.20;;;;;;5010486;28;20061;-93
2021/06/13 07:04:45;;;;;;;6.35;3.35;;;21.40;84.90;;;;;;5000775;28;20054;-93
2021/06/13 07:07:14;;;;;;;6.82;3.10;;;21.50;85.60;;;;;;4998033;28;20114;-95
2021/06/13 07:09:44;;;;;;;7.15;3.28;;;21.50;84.40;;;;;;4952207;28;20097;-91
2021/06/13 07:12:12;;;;;;;11.65;3.60;;;21.60;84.50;;;;;;5010830;28;20511;-90
2021/06/13 07:14:39;;;;;;;6.68;3.17;;;21.90;81.40;;;;;;4999718;28;20120;-92
2021/06/13 07:17:06;;;;;;;8.82;3.50;;;22.20;81.30;;;;;;5005161;28;20046;-92
2021/06/13 07:19:37;;;;;;;8.02;3.28;;;22.30;77.90;;;;;;5001336;28;20042;-92
2021/06/13 07:22:04;;;;;;;7.88;3.45;;;22.80;71.80;;;;;;5017400;28;20049;-93
2021/06/13 07:24:31;;;;;;;6.25;3.03;;;23.00;73.00;;;;;;4996638;28;20132;-92
2021/06/13 07:27:17;;;;;;;9.48;3.17;;;23.20;70.60;;;;;;4975799;28;20058;-93
2021/06/13 07:29:47;;;;;;;6.45;3.13;;;23.30;71.30;;;;;;4997729;28;20088;-91
2021/06/13 07:32:16;;;;;;;6.22;2.88;;;23.40;72.80;;;;;;4995370;28;20039;-92
2021/06/13 07:34:49;;;;;;;6.90;3.20;;;23.90;67.60;;;;;;4964449;28;20061;-92
2021/06/13 07:37:16;;;;;;;8.77;3.03;;;24.10;65.00;;;;;;5011303;28;20050;-91
2021/06/13 07:40:04;;;;;;;7.45;2.88;;;24.20;62.70;;;;;;4989388;28;20060;-92
2021/06/13 07:42:45;;;;;;;8.40;3.05;;;23.90;66.40;;;;;;5018702;28;20725;-93
2021/06/13 07:45:14;;;;;;;9.85;3.35;;;24.00;65.70;;;;;;4972245;28;20074;-92
2021/06/13 07:47:42;;;;;;;9.18;2.97;;;24.30;67.50;;;;;;4989138;28;20081;-93
2021/06/13 07:50:13;;;;;;;8.98;3.03;;;24.70;59.20;;;;;;4995013;28;20056;-91
2021/06/13 07:52:48;;;;;;;8.20;3.08;;;24.40;59.70;;;;;;4977606;28;20105;-93
2021/06/13 07:55:21;;;;;;;8.32;2.97;;;24.30;65.80;;;;;;4997039;28;20133;-93
2021/06/13 07:57:49;;;;;;;9.93;3.15;;;24.30;63.90;;;;;;4979333;28;20114;-92
2021/06/13 08:00:22;;;;;;;6.15;2.88;;;24.10;63.30;;;;;;4981102;28;20122;-93
2021/06/13 08:06:17;;;;;;;7.38;2.53;;;25.00;61.50;;;;;;4988818;28;20094;-92
2021/06/13 08:08:50;;;;;;;5.03;2.80;;;25.40;59.60;;;;;;4993044;28;20054;-93
2021/06/13 08:11:17;;;;;;;6.95;2.45;;;26.00;56.60;;;;;;5008314;28;20399;-91
2021/06/13 08:13:49;;;;;;;4.75;2.35;;;25.60;57.40;;;;;;5001449;28;20069;-94
2021/06/13 08:16:30;;;;;;;5.32;2.63;;;25.80;62.50;;;;;;4942814;29;20055;-92
2021/06/13 08:19:30;;;;;;;6.05;3.20;;;26.00;59.30;;;;;;4945512;29;20122;-94
2021/06/13 08:22:11;;;;;;;6.38;2.63;;;26.20;58.20;;;;;;4960056;28;20047;-91
2021/06/13 08:24:38;;;;;;;9.40;2.53;;;26.30;55.70;;;;;;4934792;29;20051;-92
2021/06/13 08:27:06;;;;;;;5.35;2.63;;;26.40;57.30;;;;;;4956250;29;20382;-92
2021/06/13 08:29:39;;;;;;;6.93;2.45;;;26.10;57.70;;;;;;4938554;29;20223;-93
2021/06/13 08:32:33;;;;;;;8.07;3.00;;;26.20;55.20;;;;;;4941986;28;20046;-92
2021/06/13 08:35:00;;;;;;;11.85;3.17;;;26.00;57.40;;;;;;4945835;28;20454;-93
2021/06/13 08:37:29;;;;;;;5.13;2.42;;;26.20;56.60;;;;;;4954702;28;20051;-92
2021/06/13 08:39:57;;;;;;;4.43;2.47;;;26.80;56.50;;;;;;4939152;29;20148;-90
2021/06/13 08:42:23;;;;;;;6.53;2.70;;;27.00;55.50;;;;;;4941457;29;20086;-90
2021/06/13 08:44:52;;;;;;;5.63;2.60;;;27.30;52.50;;;;;;4921738;29;20425;-91
2021/06/13 08:47:22;;;;;;;6.47;2.30;;;27.40;54.80;;;;;;4975442;28;20136;-91
2021/06/13 08:49:54;;;;;;;5.97;2.88;;;27.70;51.90;;;;;;4994347;28;20046;-93
2021/06/13 08:52:21;;;;;;;7.38;2.67;;;27.60;55.20;;;;;;4977694;28;20471;-90
2021/06/13 08:54:48;;;;;;;7.63;2.92;;;27.60;50.50;;;;;;4976930;28;20059;-91
2021/06/13 08:57:16;;;;;;;6.00;2.50;;;27.80;49.50;;;;;;4995278;28;20042;-89
2021/06/13 08:59:50;;;;;;;8.88;2.85;;;27.50;51.30;;;;;;4979993;28;20065;-90
2021/06/13 09:02:27;;;;;;;10.47;2.30;;;27.50;51.90;;;;;;5000154;28;20093;-91
2021/06/13 09:06:10;;;;;;;4.32;2.25;;;27.20;54.50;;;;;;4961739;28;20426;-93
2021/06/13 09:08:54;;;;;;;3.97;2.00;;;27.30;53.00;;;;;;4977760;28;20046;-93
2021/06/13 09:12:11;;;;;;;;;;;;;;;;;;;;;
2021/06/13 09:14:53;;;;;;;5.80;2.13;;;28.50;46.30;;;;;;4997220;28;20113;-94
2021/06/13 09:17:26;;;;;;;5.45;2.60;;;28.20;49.90;;;;;;4999910;28;20093;-93
2021/06/13 09:24:38;;;;;;;4.57;2.50;;;27.40;50.50;;;;;;4896696;29;20060;-91
2021/06/13 09:27:08;;;;;;;6.13;2.45;;;27.40;51.90;;;;;;4919769;29;20658;-91
2021/06/13 09:30:20;;;;;;;4.00;2.00;;;28.00;52.20;;;;;;4902029;29;20135;-92
2021/06/13 09:33:01;;;;;;;;;;;28.80;43.90;;;;;;4859402;29;20061;-91
2021/06/13 09:35:55;;;;;;;11.35;2.22;;;29.40;44.90;;;;;;4927618;29;19911;-93
2021/06/13 09:39:04;;;;;;;4.93;1.85;;;29.70;43.00;;;;;;4928863;29;20051;-92
2021/06/13 09:41:44;;;;;;;4.28;2.10;;;29.40;44.60;;;;;;4929111;28;20177;-93
2021/06/13 09:44:29;;;;;;;5.15;2.17;;;29.40;47.30;;;;;;5000565;28;20093;-91
2021/06/13 09:47:10;;;;;;;6.30;2.70;;;29.30;48.00;;;;;;4988863;28;20050;-93
2021/06/13 09:50:30;;;;;;;;;;;;;;;;;;;;;
2021/06/13 09:53:44;;;;;;;8.85;2.78;;;28.70;48.10;;;;;;5002433;28;20082;-92
2021/06/13 09:56:23;;;;;;;4.85;1.83;;;29.40;48.00;;;;;;5004686;28;20060;-90
2021/06/13 09:59:29;;;;;;;7.68;2.35;;;30.20;47.00;;;;;;5012034;28;20050;-93
2021/06/13 10:02:13;;;;;;;3.38;1.90;;;30.10;44.80;;;;;;4989198;28;20106;-93
2021/06/13 10:08:36;;;;;;;3.72;2.10;;;30.10;45.00;;;;;;4984361;23;20468;-93
2021/06/13 10:11:05;;;;;;;3.80;1.77;;;30.70;43.20;;;;;;4985304;28;20106;-92
2021/06/13 10:14:17;;;;;;;2.92;1.75;;;30.90;42.60;;;;;;4985126;28;20126;-90
2021/06/13 10:16:49;;;;;;;6.30;1.77;;;30.50;41.50;;;;;;4985688;28;20060;-92
2021/06/13 10:19:41;;;;;;;4.35;1.65;;;30.60;39.90;;;;;;4982884;28;20054;-91
2021/06/13 10:22:19;;;;;;;3.53;1.85;;;30.70;42.50;;;;;;5008553;28;20106;-91
2021/06/13 10:24:56;;;;;;;3.45;1.70;;;30.10;42.30;;;;;;5000082;28;20050;-92
2021/06/13 10:28:08;;;;;;;4.15;1.98;;;29.60;43.50;;;;;;5007199;28;20042;-92
2021/06/13 10:30:36;;;;;;;6.03;2.03;;;29.60;44.30;;;;;;4975767;28;20038;-91
2021/06/13 10:33:59;;;;;;;4.55;1.60;;;29.60;44.20;;;;;;4989069;28;20070;-91
2021/06/13 10:37:10;;;;;;;3.75;1.88;;;30.30;42.70;;;;;;4985006;28;20054;-92
2021/06/13 10:39:49;;;;;;;4.78;1.42;;;30.70;39.70;;;;;;5014468;28;20057;-92
2021/06/13 10:42:20;;;;;;;7.43;1.80;;;31.40;39.90;;;;;;5021835;28;20050;-92
2021/06/13 10:45:11;;;;;;;;;;;;;;;;;;;;;
2021/06/13 10:48:24;;;;;;;2.50;1.52;;;31.80;41.30;;;;;;4977248;28;20416;-93
2021/06/13 10:50:54;;;;;;;3.53;1.85;;;31.60;39.10;;;;;;5002307;28;20061;-91
2021/06/13 10:53:35;;;;;;;6.60;1.92;;;31.60;41.30;;;;;;4969572;28;20061;-92
2021/06/13 10:56:04;;;;;;;4.13;1.50;;;31.30;41.60;;;;;;4999311;28;20128;-93
2021/06/13 10:59:03;;;;;;;4.60;1.98;;;31.00;41.90;;;;;;4962402;28;20701;-91
2021/06/13 11:01:35;;;;;;;4.80;1.30;;;31.10;40.70;;;;;;4997308;28;20081;-92
2021/06/13 11:04:08;;;;;;;3.85;1.50;;;31.30;39.40;;;;;;4958921;28;20176;-91
2021/06/13 11:06:36;;;;;;;3.92;1.50;;;31.40;38.50;;;;;;4967796;28;20063;-91
2021/06/13 11:09:17;;;;;;;3.15;1.40;;;32.00;40.40;;;;;;4965378;28;20046;-92
2021/06/13 11:11:55;;;;;;;2.95;1.40;;;32.60;35.30;;;;;;4990154;28;20397;-92
2021/06/13 11:14:23;;;;;;;2.67;1.20;;;33.20;34.90;;;;;;4997941;28;20054;-93
2021/06/13 11:16:55;;;;;;;3.85;1.10;;;33.70;37.00;;;;;;4992424;28;20494;-94
2021/06/13 11:19:35;;;;;;;8.15;1.30;;;33.40;35.20;;;;;;4980898;28;20064;-93
2021/06/13 11:22:32;;;;;;;7.78;1.58;;;32.70;36.70;;;;;;4999403;28;20065;-92
2021/06/13 11:25:00;;;;;;;6.65;1.50;;;32.40;37.10;;;;;;4997976;28;20054;-90
2021/06/13 11:27:30;;;;;;;4.43;1.42;;;32.50;37.10;;;;;;5003008;28;20055;-91
2021/06/13 11:29:59;;;;;;;3.47;1.45;;;32.80;33.20;;;;;;4980824;28;20153;-92
2021/06/13 11:32:51;;;;;;;3.80;1.55;;;32.30;34.70;;;;;;4996872;28;20089;-92
2021/06/13 11:35:30;;;;;;;3.20;1.52;;;32.30;38.80;;;;;;4989332;28;20116;-94
2021/06/13 11:38:07;;;;;;;2.25;1.10;;;32.60;36.30;;;;;;4998466;28;20051;-91
2021/06/13 11:40:55;;;;;;;4.15;1.42;;;32.10;35.60;;;;;;4997102;28;20098;-93
2021/06/13 11:43:30;;;;;;;2.05;0.90;;;32.00;38.20;;;;;;4967090;28;20220;-92
2021/06/13 11:46:01;;;;;;;2.33;1.30;;;32.60;37.00;;;;;;4994406;28;20119;-91
2021/06/13 11:48:30;;;;;;;2.30;1.05;;;33.30;36.10;;;;;;4977341;28;20142;-92
2021/06/13 11:51:17;;;;;;;3.13;1.20;;;33.50;34.80;;;;;;4994103;28;20072;-90
2021/06/13 11:54:07;;;;;;;2.67;1.10;;;33.80;35.20;;;;;;4999191;28;20079;-89
2021/06/13 11:56:34;;;;;;;3.42;1.23;;;33.50;33.60;;;;;;4979990;28;20106;-91
2021/06/13 12:02:55;;;;;;;4.88;1.30;;;32.40;33.30;;;;;;4923783;29;20470;-92
2021/06/13 12:05:34;;;;;;;3.92;1.27;;;32.60;36.20;;;;;;4930983;29;20044;-91
2021/06/13 12:08:01;;;;;;;4.10;1.13;;;32.80;35.70;;;;;;4902237;29;20056;-93
2021/06/13 12:11:00;;;;;;;1.95;1.00;;;33.10;34.50;;;;;;4918678;29;20067;-93
2021/06/13 12:13:38;;;;;;;2.83;1.90;;;33.40;32.30;;;;;;4904081;29;20059;-91
2021/06/13 12:16:49;;;;;;;2.65;0.80;;;33.30;29.50;;;;;;4892889;29;20052;-92
2021/06/13 12:19:26;;;;;;;3.97;1.27;;;33.60;34.60;;;;;;4921735;29;20052;-92
2021/06/13 12:21:53;;;;;;;1.95;1.10;;;34.40;32.80;;;;;;4920724;29;20062;-92
2021/06/13 12:27:22;;;;;;;4.63;1.13;;;35.10;28.90;;;;;;4854421;29;20058;-89
2021/06/13 12:29:57;;;;;;;2.15;1.17;;;35.40;33.20;;;;;;4900417;29;20074;-90
2021/06/13 12:32:25;;;;;;;3.00;1.30;;;35.10;30.90;;;;;;4916849;29;20124;-91
2021/06/13 12:35:12;;;;;;;2.55;1.27;;;34.60;32.60;;;;;;4923890;29;20060;-93
2021/06/13 12:38:04;;;;;;;3.28;1.10;;;33.90;32.80;;;;;;4901897;29;20048;-91
2021/06/13 12:40:33;;;;;;;2.90;1.17;;;33.70;31.00;;;;;;4945571;28;20093;-90
2021/06/13 12:43:06;;;;;;;2.80;1.00;;;34.30;31.70;;;;;;4981473;28;20053;-93
2021/06/13 12:45:34;;;;;;;3.65;1.10;;;34.50;30.90;;;;;;4986773;28;20051;-92
2021/06/13 12:48:04;;;;;;;1.17;0.80;;;34.20;30.60;;;;;;4983201;28;20054;-91
2021/06/13 12:50:36;;;;;;;1.50;0.90;;;34.00;30.50;;;;;;4991911;28;20109;-92
2021/06/13 12:53:11;;;;;;;4.50;1.25;;;34.30;32.00;;;;;;4999038;28;20070;-93
2021/06/13 12:55:45;;;;;;;2.25;1.00;;;34.30;30.60;;;;;;4962298;28;20141;-92
2021/06/13 12:58:34;;;;;;;2.17;1.00;;;34.30;27.60;;;;;;4987043;28;20050;-92
2021/06/13 13:01:02;;;;;;;2.10;0.80;;;33.70;28.90;;;;;;5001975;28;20057;-93
2021/06/13 13:03:41;;;;;;;2.17;0.70;;;33.60;29.10;;;;;;4985092;28;20054;-93
2021/06/13 13:06:10;;;;;;;3.08;1.25;;;33.40;29.80;;;;;;4997321;28;20070;-92
2021/06/13 13:09:03;;;;;;;2.95;0.90;;;33.50;30.00;;;;;;4999157;28;20038;-92
2021/06/13 13:11:37;;;;;;;2.70;0.98;;;34.10;27.90;;;;;;4978952;28;20523;-92
2021/06/13 13:14:18;;;;;;;4.40;0.95;;;35.00;26.40;;;;;;4989533;28;20047;-94
2021/06/13 13:16:47;;;;;;;1.95;0.95;;;35.00;26.30;;;;;;4983523;28;20050;-93
2021/06/13 13:19:30;;;;;;;5.15;1.15;;;34.80;28.50;;;;;;4979614;28;20058;-93
2021/06/13 13:22:20;;;;;;;1.67;1.00;;;34.80;29.00;;;;;;4996532;28;20058;-93
2021/06/13 13:25:34;;;;;;;1.73;0.73;;;35.30;29.90;;;;;;4977350;28;20078;-92
2021/06/13 13:28:29;;;;;;;2.10;0.70;;;34.90;29.00;;;;;;4992700;28;20080;-93
2021/06/13 13:31:08;;;;;;;2.53;1.00;;;34.60;29.50;;;;;;4965354;28;20030;-92
2021/06/13 13:34:08;;;;;;;2.03;1.05;;;34.40;29.10;;;;;;4994842;28;20070;-91
2021/06/13 13:36:40;;;;;;;1.73;0.70;;;34.10;30.60;;;;;;4973240;28;20055;-92
2021/06/13 13:39:12;;;;;;;1.77;1.02;;;33.80;29.50;;;;;;4986599;28;20042;-93
2021/06/13 13:41:48;;;;;;;2.95;0.80;;;33.60;28.60;;;;;;5000293;28;20114;-93